createdAt,value
2023-08-17T00:00:15.135Z,22.79
2023-08-17T00:02:42.685Z,22.81
2023-08-17T00:05:10.424Z,22.81
2023-08-17T00:07:38.256Z,22.81
2023-08-17T00:10:06.009Z,22.81
2023-08-17T00:12:34.964Z,22.80
2023-08-17T00:15:02.504Z,22.77
2023-08-17T00:17:31.134Z,22.76
2023-08-17T00:19:58.784Z,22.72
2023-08-17T00:22:26.302Z,22.78
2023-08-17T00:24:53.834Z,22.75
2023-08-17T00:27:21.540Z,22.74
2023-08-17T00:29:50.589Z,22.45
2023-08-17T00:32:18.753Z,21.60
2023-08-17T00:34:46.950Z,21.30
2023-08-17T00:37:14.490Z,20.80
2023-08-17T00:39:44.950Z,20.94
2023-08-17T00:42:15.340Z,21.11
2023-08-17T00:44:42.972Z,20.98
2023-08-17T00:47:12.227Z,22.04
2023-08-17T00:49:39.918Z,22.31
2023-08-17T00:52:07.523Z,22.18
2023-08-17T00:54:35.066Z,21.23
2023-08-17T00:57:04.841Z,21.66
2023-08-17T00:59:36.683Z,22.23
2023-08-17T01:02:05.579Z,21.75
2023-08-17T01:04:34.919Z,21.43
2023-08-17T01:07:02.585Z,21.77
2023-08-17T01:09:30.365Z,22.32
2023-08-17T01:12:04.942Z,21.52
2023-08-17T01:14:38.628Z,21.76
2023-08-17T01:17:12.997Z,22.30
2023-08-17T01:19:43.344Z,22.32
2023-08-17T01:22:13.060Z,22.39
2023-08-17T01:24:43.181Z,22.44
2023-08-17T01:27:10.729Z,22.37
2023-08-17T01:29:38.474Z,22.42
2023-08-17T01:32:11.822Z,22.46
2023-08-17T01:34:46.623Z,22.46
2023-08-17T01:37:20.430Z,22.32
2023-08-17T01:39:54.246Z,22.14
2023-08-17T01:42:22.651Z,22.10
2023-08-17T01:44:50.401Z,22.36
2023-08-17T01:47:22.391Z,22.32
2023-08-17T01:49:50.056Z,22.31
2023-08-17T01:52:17.621Z,22.31
2023-08-17T01:54:45.127Z,22.06
2023-08-17T01:57:14.111Z,22.28
2023-08-17T01:59:41.592Z,22.36
2023-08-17T02:02:09.507Z,22.12
2023-08-17T02:04:37.086Z,22.31
2023-08-17T02:07:05.221Z,22.34
2023-08-17T02:09:32.777Z,22.34
2023-08-17T02:12:00.318Z,22.35
2023-08-17T02:14:29.121Z,21.89
2023-08-17T02:16:56.672Z,21.33
2023-08-17T02:19:24.222Z,21.58
2023-08-17T02:21:51.865Z,21.50
2023-08-17T02:24:19.593Z,21.12
2023-08-17T02:26:47.073Z,20.82
2023-08-17T02:29:14.584Z,20.98
2023-08-17T02:31:43.452Z,21.62
2023-08-17T02:34:11.176Z,20.96
2023-08-17T02:36:38.662Z,20.35
2023-08-17T02:39:06.728Z,20.53
2023-08-17T02:41:34.214Z,20.58
2023-08-17T02:44:03.214Z,20.94
2023-08-17T02:46:30.901Z,21.46
2023-08-17T02:48:59.801Z,21.62
2023-08-17T02:51:27.294Z,21.23
2023-08-17T02:53:54.792Z,21.01
2023-08-17T02:56:22.325Z,21.50
2023-08-17T02:58:49.918Z,21.83
2023-08-17T03:01:17.468Z,21.89
2023-08-17T03:03:44.984Z,21.95
2023-08-17T03:06:13.826Z,21.60
2023-08-17T03:08:45.701Z,21.66
2023-08-17T03:11:15.651Z,21.84
2023-08-17T03:13:43.236Z,21.61
2023-08-17T03:16:10.908Z,21.72
2023-08-17T03:18:38.465Z,21.76
2023-08-17T03:21:06.016Z,21.88
2023-08-17T03:23:35.674Z,21.88
2023-08-17T03:26:03.172Z,21.41
2023-08-17T03:28:30.695Z,21.58
2023-08-17T03:30:58.394Z,21.69
2023-08-17T03:33:25.898Z,21.69
2023-08-17T03:35:53.550Z,21.68
2023-08-17T03:38:21.178Z,21.70
2023-08-17T03:40:50.083Z,21.83
2023-08-17T03:43:17.685Z,21.86
2023-08-17T03:45:45.373Z,21.86
2023-08-17T03:48:13.383Z,21.83
2023-08-17T03:50:41.116Z,21.82
2023-08-17T03:53:08.622Z,21.81
2023-08-17T03:55:36.167Z,21.81
2023-08-17T03:58:05.540Z,21.76
2023-08-17T04:00:33.530Z,21.75
2023-08-17T04:03:01.051Z,21.75
2023-08-17T04:05:29.485Z,21.68
2023-08-17T04:07:57.076Z,21.69
2023-08-17T04:10:24.680Z,21.67
2023-08-17T04:12:53.174Z,21.69
2023-08-17T04:15:22.085Z,21.46
2023-08-17T04:17:52.606Z,21.31
2023-08-17T04:20:20.432Z,21.60
2023-08-17T04:22:48.024Z,21.57
2023-08-17T04:25:15.593Z,21.59
2023-08-17T04:27:45.906Z,21.56
2023-08-17T04:30:14.389Z,21.43
2023-08-17T04:32:43.480Z,21.54
2023-08-17T04:35:11.885Z,21.54
2023-08-17T04:37:39.449Z,21.54
2023-08-17T04:40:08.923Z,21.53
2023-08-17T04:42:36.437Z,21.47
2023-08-17T04:45:04.436Z,20.97
2023-08-17T04:47:32.024Z,21.38
2023-08-17T04:50:01.056Z,21.47
2023-08-17T04:52:28.548Z,21.48
2023-08-17T04:54:58.278Z,21.47
2023-08-17T04:57:26.009Z,21.47
2023-08-17T04:59:53.814Z,21.47
2023-08-17T05:02:24.773Z,21.52
2023-08-17T05:04:52.322Z,21.58
2023-08-17T05:07:21.425Z,21.64
2023-08-17T05:09:49.070Z,21.70
2023-08-17T05:12:16.557Z,21.74
2023-08-17T05:14:44.090Z,21.74
2023-08-17T05:17:11.664Z,21.84
2023-08-17T05:19:40.583Z,21.89
2023-08-17T05:22:13.109Z,22.12
2023-08-17T05:24:42.087Z,22.20
2023-08-17T05:27:09.773Z,22.24
2023-08-17T05:29:37.258Z,21.34
2023-08-17T05:32:05.287Z,21.91
2023-08-17T05:34:32.803Z,22.16
2023-08-17T05:37:00.302Z,22.45
2023-08-17T05:39:28.405Z,21.97
2023-08-17T05:41:57.358Z,22.38
2023-08-17T05:44:24.914Z,22.34
2023-08-17T05:46:52.407Z,21.58
2023-08-17T05:49:20.068Z,22.87
2023-08-17T05:51:47.808Z,22.90
2023-08-17T05:54:15.316Z,22.90
2023-08-17T05:56:45.639Z,22.32
2023-08-17T05:59:15.039Z,22.16
2023-08-17T06:01:42.801Z,22.44
2023-08-17T06:04:10.322Z,21.64
2023-08-17T06:06:38.139Z,21.91
2023-08-17T06:09:06.123Z,22.32
2023-08-17T06:11:33.675Z,22.17
2023-08-17T06:14:01.183Z,21.83
2023-08-17T06:16:30.118Z,21.95
2023-08-17T06:18:57.735Z,21.90
2023-08-17T06:21:25.282Z,21.61
2023-08-17T06:23:52.977Z,21.88
2023-08-17T06:26:20.573Z,22.18
2023-08-17T06:28:48.107Z,22.10
2023-08-17T06:31:16.689Z,22.21
2023-08-17T06:33:45.680Z,22.01
2023-08-17T06:36:17.282Z,22.02
2023-08-17T06:38:44.835Z,22.20
2023-08-17T06:41:12.483Z,22.28
2023-08-17T06:43:40.082Z,22.40
2023-08-17T06:46:07.618Z,22.28
2023-08-17T06:48:35.198Z,22.40
2023-08-17T06:51:05.706Z,22.41
2023-08-17T06:53:33.279Z,22.51
2023-08-17T06:56:02.872Z,22.45
2023-08-17T06:58:30.804Z,22.46
2023-08-17T07:01:01.408Z,22.65
2023-08-17T07:03:28.923Z,22.65
2023-08-17T07:05:56.501Z,22.78
2023-08-17T07:08:25.341Z,22.84
2023-08-17T07:10:52.888Z,22.97
2023-08-17T07:13:20.343Z,22.83
2023-08-17T07:15:48.051Z,22.84
2023-08-17T07:18:15.765Z,22.94
2023-08-17T07:20:44.428Z,22.65
2023-08-17T07:23:12.044Z,22.76
2023-08-17T07:25:41.104Z,22.93
2023-08-17T07:28:08.653Z,23.03
2023-08-17T07:30:36.237Z,23.00
2023-08-17T07:33:03.911Z,23.31
2023-08-17T07:35:31.534Z,23.16
2023-08-17T07:38:08.410Z,23.29
2023-08-17T07:40:36.862Z,23.48
2023-08-17T07:43:06.074Z,23.52
2023-08-17T07:45:33.746Z,23.61
2023-08-17T07:48:01.398Z,23.74
2023-08-17T07:50:28.997Z,23.52
2023-08-17T07:52:56.530Z,23.29
2023-08-17T07:55:24.142Z,23.35
2023-08-17T07:57:51.714Z,23.52
2023-08-17T08:00:20.943Z,23.94
2023-08-17T08:02:48.846Z,23.80
2023-08-17T08:05:16.494Z,24.06
2023-08-17T08:07:44.027Z,23.99
2023-08-17T08:10:11.608Z,24.40
2023-08-17T08:12:39.085Z,24.50
2023-08-17T08:15:07.473Z,24.84
2023-08-17T08:17:36.515Z,24.49
2023-08-17T08:20:04.329Z,24.54
2023-08-17T08:22:31.690Z,24.66
2023-08-17T08:24:59.795Z,24.87
2023-08-17T08:27:27.319Z,24.83
2023-08-17T08:29:54.860Z,24.92
2023-08-17T08:32:22.401Z,25.11
2023-08-17T08:34:51.585Z,24.89
2023-08-17T08:37:19.282Z,25.23
2023-08-17T08:39:54.323Z,25.08
2023-08-17T08:42:22.936Z,25.03
2023-08-17T08:44:51.539Z,25.16
2023-08-17T08:47:19.811Z,25.08
2023-08-17T08:49:59.512Z,25.27
2023-08-17T08:52:34.341Z,25.00
2023-08-17T08:55:07.522Z,25.28
2023-08-17T08:57:35.951Z,24.85
2023-08-17T09:00:04.873Z,25.23
2023-08-17T09:02:32.427Z,25.77
2023-08-17T09:05:02.204Z,25.48
2023-08-17T09:07:31.651Z,25.52
2023-08-17T09:09:59.144Z,25.50
2023-08-17T09:12:38.865Z,25.50
2023-08-17T09:15:08.880Z,25.76
2023-08-17T09:17:36.908Z,25.63
2023-08-17T09:20:08.410Z,25.80
2023-08-17T09:22:40.437Z,26.25
2023-08-17T09:25:08.955Z,26.01
2023-08-17T09:27:38.311Z,26.00
2023-08-17T09:30:07.387Z,25.57
2023-08-17T09:32:35.900Z,25.63
2023-08-17T09:35:05.548Z,26.09
2023-08-17T09:37:35.381Z,26.41
2023-08-17T09:40:03.539Z,25.89
2023-08-17T09:42:32.250Z,26.40
2023-08-17T09:45:01.903Z,26.31
2023-08-17T09:47:30.061Z,26.66
2023-08-17T09:49:58.533Z,26.67
2023-08-17T09:52:26.868Z,26.53
2023-08-17T09:54:57.401Z,26.46
2023-08-17T09:57:26.373Z,26.76
2023-08-17T09:59:56.435Z,26.53
2023-08-17T10:02:26.106Z,26.15
2023-08-17T10:04:55.161Z,26.58
2023-08-17T10:07:26.108Z,26.29
2023-08-17T10:10:02.080Z,26.46
2023-08-17T10:12:34.483Z,26.62
2023-08-17T10:15:10.282Z,26.94
2023-08-17T10:17:46.206Z,26.79
2023-08-17T10:20:16.398Z,27.08
2023-08-17T10:22:50.961Z,26.79
2023-08-17T10:25:22.063Z,27.07
2023-08-17T10:27:52.756Z,27.22
2023-08-17T10:30:22.579Z,26.75
2023-08-17T10:32:50.549Z,26.78
2023-08-17T10:35:18.619Z,27.15
2023-08-17T10:37:46.707Z,27.23
2023-08-17T10:40:15.849Z,27.53
2023-08-17T10:42:57.431Z,27.21
2023-08-17T10:45:32.771Z,27.43
2023-08-17T10:48:29.791Z,27.59
2023-08-17T10:51:06.231Z,27.51
2023-08-17T10:53:39.911Z,27.20
2023-08-17T10:56:09.889Z,27.21
2023-08-17T10:58:38.834Z,27.44
2023-08-17T11:01:06.748Z,27.35
2023-08-17T11:03:34.921Z,27.43
2023-08-17T11:06:18.397Z,27.77
2023-08-17T11:08:55.215Z,28.04
2023-08-17T11:11:24.070Z,28.29
2023-08-17T11:13:57.899Z,27.63
2023-08-17T11:16:26.542Z,27.69
2023-08-17T11:18:56.714Z,28.32
2023-08-17T11:21:24.348Z,28.25
2023-08-17T11:23:54.410Z,27.96
2023-08-17T11:26:22.165Z,27.74
2023-08-17T11:28:52.219Z,27.97
2023-08-17T11:31:21.097Z,27.83
2023-08-17T11:36:24.046Z,28.33
2023-08-17T11:38:51.659Z,27.98
2023-08-17T11:41:19.946Z,28.32
2023-08-17T11:43:48.069Z,27.92
2023-08-17T11:46:16.268Z,28.22
2023-08-17T11:48:45.666Z,28.29
2023-08-17T11:51:13.987Z,28.34
2023-08-17T11:53:42.336Z,28.44
2023-08-17T11:56:11.381Z,28.74
2023-08-17T11:58:43.691Z,28.70
2023-08-17T12:01:12.892Z,28.51
2023-08-17T12:03:42.511Z,28.72
2023-08-17T12:06:13.725Z,27.73
2023-08-17T12:08:46.455Z,27.66
2023-08-17T12:11:14.830Z,28.02
2023-08-17T12:13:42.301Z,28.37
2023-08-17T12:16:16.908Z,28.50
2023-08-17T12:18:46.118Z,28.74
2023-08-17T12:21:15.132Z,28.26
2023-08-17T12:23:43.381Z,27.81
2023-08-17T12:26:10.993Z,27.88
2023-08-17T12:28:38.385Z,28.07
2023-08-17T12:31:06.008Z,27.95
2023-08-17T12:33:33.529Z,28.17
2023-08-17T12:36:01.099Z,28.85
2023-08-17T12:38:29.984Z,28.50
2023-08-17T12:40:59.068Z,27.81
2023-08-17T12:43:26.571Z,27.46
2023-08-17T12:45:54.032Z,27.78
2023-08-17T12:48:21.604Z,27.94
2023-08-17T12:50:49.069Z,28.29
2023-08-17T12:53:16.570Z,28.50
2023-08-17T12:55:45.647Z,28.29
2023-08-17T12:58:13.219Z,27.96
2023-08-17T13:00:40.666Z,28.13
2023-08-17T13:03:09.854Z,27.95
2023-08-17T13:05:37.752Z,27.63
2023-08-17T13:08:05.486Z,27.62
2023-08-17T13:10:33.005Z,28.38
2023-08-17T13:13:01.824Z,28.74
2023-08-17T13:15:29.372Z,29.21
2023-08-17T13:17:56.837Z,28.05
2023-08-17T13:20:24.334Z,28.20
2023-08-17T13:22:52.081Z,28.37
2023-08-17T13:25:19.695Z,28.87
2023-08-17T13:27:47.057Z,28.61
2023-08-17T13:30:15.944Z,28.46
2023-08-17T13:32:46.470Z,28.46
2023-08-17T13:35:14.422Z,27.99
2023-08-17T13:37:43.169Z,27.87
2023-08-17T13:40:11.522Z,27.79
2023-08-17T13:42:39.047Z,27.97
2023-08-17T13:45:07.730Z,28.27
2023-08-17T13:47:36.609Z,28.12
2023-08-17T13:50:07.626Z,28.34
2023-08-17T13:52:35.202Z,27.84
2023-08-17T13:55:02.583Z,27.95
2023-08-17T13:57:30.141Z,27.66
2023-08-17T13:59:57.562Z,27.66
2023-08-17T14:02:27.139Z,27.58
2023-08-17T14:04:57.220Z,27.32
2023-08-17T14:07:24.823Z,27.65
2023-08-17T14:10:05.551Z,27.83
2023-08-17T14:12:35.866Z,27.96
2023-08-17T14:15:03.654Z,27.71
2023-08-17T14:17:31.130Z,27.37
2023-08-17T14:20:00.429Z,27.11
2023-08-17T14:22:28.291Z,26.91
2023-08-17T14:24:56.328Z,26.85
2023-08-17T14:27:23.686Z,26.81
2023-08-17T14:29:51.190Z,26.72
2023-08-17T14:32:18.701Z,26.73
2023-08-17T14:37:34.988Z,26.72
2023-08-17T14:40:02.495Z,26.48
2023-08-17T14:42:54.341Z,26.51
2023-08-17T14:45:22.390Z,26.50
2023-08-17T14:47:50.331Z,26.57
2023-08-17T14:50:17.916Z,26.57
2023-08-17T14:52:46.717Z,26.50
2023-08-17T14:55:14.537Z,26.43
2023-08-17T14:57:42.018Z,26.41
2023-08-17T15:00:16.705Z,26.28
2023-08-17T15:02:44.943Z,26.20
2023-08-17T15:05:14.770Z,26.28
2023-08-17T15:07:42.430Z,26.39
2023-08-17T15:10:11.621Z,26.38
2023-08-17T15:12:39.150Z,26.35
2023-08-17T15:15:07.919Z,26.27
2023-08-17T15:17:35.772Z,26.20
2023-08-17T15:20:03.575Z,26.06
2023-08-17T15:22:31.153Z,26.01
2023-08-17T15:24:58.728Z,25.91
2023-08-17T15:27:28.822Z,25.83
2023-08-17T15:29:56.655Z,25.68
2023-08-17T15:32:24.151Z,25.23
2023-08-17T15:34:53.327Z,24.85
2023-08-17T15:37:21.621Z,24.92
2023-08-17T15:39:49.144Z,23.94
2023-08-17T15:42:17.123Z,24.09
2023-08-17T15:44:46.015Z,23.78
2023-08-17T15:47:13.728Z,23.77
2023-08-17T15:49:41.107Z,23.76
2023-08-17T15:52:11.095Z,23.66
2023-08-17T15:54:39.810Z,23.41
2023-08-17T15:57:07.364Z,22.82
2023-08-17T15:59:35.149Z,22.97
2023-08-17T16:02:04.510Z,23.12
2023-08-17T16:04:31.995Z,23.14
2023-08-17T16:06:59.471Z,22.98
2023-08-17T16:09:30.607Z,22.58
2023-08-17T16:11:58.609Z,23.35
2023-08-17T16:14:26.399Z,22.98
2023-08-17T16:16:56.622Z,22.82
2023-08-17T16:19:27.492Z,22.58
2023-08-17T16:21:55.077Z,22.42
2023-08-17T16:26:53.420Z,22.62
2023-08-17T16:29:20.942Z,22.28
2023-08-17T16:32:00.827Z,22.87
2023-08-17T16:34:30.692Z,23.20
2023-08-17T16:36:58.537Z,23.49
2023-08-17T16:39:26.393Z,23.02
2023-08-17T16:41:54.074Z,22.74
2023-08-17T16:44:21.959Z,22.84
2023-08-17T16:46:53.878Z,23.17
2023-08-17T16:49:21.397Z,22.27
2023-08-17T16:51:50.350Z,22.29
2023-08-17T16:54:17.907Z,21.97
2023-08-17T16:56:45.461Z,22.93
2023-08-17T16:59:14.298Z,22.66
2023-08-17T17:01:41.962Z,23.03
2023-08-17T17:04:09.534Z,22.59
2023-08-17T17:06:37.143Z,23.35
2023-08-17T17:09:06.569Z,23.55
2023-08-17T17:11:34.222Z,22.97
2023-08-17T17:14:01.947Z,22.09
2023-08-17T17:16:29.472Z,23.01
2023-08-17T17:18:59.234Z,23.15
2023-08-17T17:21:27.084Z,23.02
2023-08-17T17:23:54.698Z,22.74
2023-08-17T17:26:23.618Z,21.95
2023-08-17T17:28:51.253Z,21.65
2023-08-17T17:31:21.797Z,22.86
2023-08-17T17:33:49.537Z,22.91
2023-08-17T17:36:17.029Z,22.66
2023-08-17T17:38:44.546Z,22.75
2023-08-17T17:41:12.037Z,22.65
2023-08-17T17:43:40.868Z,22.36
2023-08-17T17:46:08.385Z,22.47
2023-08-17T17:48:36.165Z,21.66
2023-08-17T17:51:03.561Z,22.26
2023-08-17T17:53:31.324Z,22.78
2023-08-17T17:55:58.884Z,22.84
2023-08-17T17:58:26.547Z,22.47
2023-08-17T18:00:55.536Z,22.75
2023-08-17T18:03:23.318Z,22.74
2023-08-17T18:05:51.690Z,22.73
2023-08-17T18:08:19.192Z,23.09
2023-08-17T18:10:47.005Z,22.91
2023-08-17T18:13:14.394Z,22.05
2023-08-17T18:15:42.890Z,21.73
2023-08-17T18:18:11.882Z,21.41
2023-08-17T18:20:39.654Z,22.23
2023-08-17T18:23:08.691Z,22.16
2023-08-17T18:25:36.221Z,21.95
2023-08-17T18:28:05.628Z,22.56
2023-08-17T18:30:33.386Z,21.84
2023-08-17T18:33:00.920Z,21.62
2023-08-17T18:35:29.969Z,20.54
2023-08-17T18:37:57.522Z,20.89
2023-08-17T18:40:25.062Z,20.96
2023-08-17T18:42:52.651Z,21.03
2023-08-17T18:45:21.114Z,21.21
2023-08-17T18:47:48.655Z,21.61
2023-08-17T18:50:16.697Z,21.62
2023-08-17T18:52:45.574Z,21.47
2023-08-17T18:55:14.354Z,21.06
2023-08-17T18:57:42.403Z,20.81
2023-08-17T19:00:12.245Z,21.54
2023-08-17T19:02:40.666Z,20.66
2023-08-17T19:05:09.243Z,21.14
2023-08-17T19:07:36.862Z,21.75
2023-08-17T19:10:06.883Z,21.69
2023-08-17T19:12:34.489Z,21.70
2023-08-17T19:15:02.056Z,21.17
2023-08-17T19:17:32.281Z,20.58
2023-08-17T19:20:04.097Z,21.14
2023-08-17T19:22:31.603Z,21.20
2023-08-17T19:25:03.527Z,21.58
2023-08-17T19:27:32.747Z,21.54
2023-08-17T19:30:00.403Z,21.76
2023-08-17T19:32:27.992Z,21.92
2023-08-17T19:34:55.497Z,21.58
2023-08-17T19:37:23.052Z,22.08
2023-08-17T19:39:50.582Z,21.58
2023-08-17T19:42:21.220Z,21.90
2023-08-17T19:44:52.857Z,21.94
2023-08-17T19:47:21.139Z,21.42
2023-08-17T19:49:49.093Z,21.79
2023-08-17T19:52:17.576Z,21.51
2023-08-17T19:54:49.523Z,21.65
2023-08-17T19:57:17.103Z,21.75
2023-08-17T19:59:44.669Z,21.51
2023-08-17T20:02:15.875Z,21.61
2023-08-17T20:04:43.478Z,21.15
2023-08-17T20:07:11.182Z,21.35
2023-08-17T20:09:38.708Z,20.71
2023-08-17T20:12:07.475Z,20.88
2023-08-17T20:14:35.966Z,20.89
2023-08-17T20:17:04.187Z,21.08
2023-08-17T20:19:33.678Z,20.83
2023-08-17T20:22:03.551Z,21.21
2023-08-17T20:24:31.342Z,21.46
2023-08-17T20:27:00.885Z,21.45
2023-08-17T20:29:29.619Z,21.40
2023-08-17T20:31:57.375Z,20.49
2023-08-17T20:34:24.898Z,20.91
2023-08-17T20:36:53.813Z,21.18
2023-08-17T20:39:21.328Z,21.20
2023-08-17T20:41:49.067Z,21.41
2023-08-17T20:44:16.624Z,21.53
2023-08-17T20:46:44.154Z,21.55
2023-08-17T20:49:11.708Z,21.67
2023-08-17T20:51:40.145Z,21.60
2023-08-17T20:54:13.279Z,21.42
2023-08-17T20:56:40.759Z,21.49
2023-08-17T20:59:08.322Z,21.33
2023-08-17T21:01:36.372Z,21.27
2023-08-17T21:04:04.137Z,21.20
2023-08-17T21:06:31.690Z,21.19
2023-08-17T21:08:59.174Z,21.31
2023-08-17T21:11:30.466Z,21.12
2023-08-17T21:13:58.072Z,21.12
2023-08-17T21:16:25.595Z,21.20
2023-08-17T21:18:58.268Z,21.19
2023-08-17T21:21:25.845Z,20.65
2023-08-17T21:23:53.380Z,21.13
2023-08-17T21:26:20.950Z,21.19
2023-08-17T21:28:49.839Z,21.14
2023-08-17T21:31:17.550Z,21.22
2023-08-17T21:33:45.174Z,21.03
2023-08-17T21:36:12.789Z,20.50
2023-08-17T21:38:40.402Z,21.01
2023-08-17T21:41:08.017Z,19.93
2023-08-17T21:43:35.663Z,20.53
2023-08-17T21:46:04.562Z,21.24
2023-08-17T21:48:32.096Z,21.12
2023-08-17T21:50:59.739Z,20.70
2023-08-17T21:53:27.299Z,21.31
2023-08-17T21:55:55.021Z,21.46
2023-08-17T21:58:22.652Z,21.51
2023-08-17T22:00:53.089Z,21.52
2023-08-17T22:03:22.351Z,20.61
2023-08-17T22:05:53.161Z,21.34
2023-08-17T22:08:20.683Z,21.52
2023-08-17T22:10:49.375Z,20.82
2023-08-17T22:13:16.884Z,21.26
2023-08-17T22:15:44.536Z,21.35
2023-08-17T22:18:12.126Z,21.40
2023-08-17T22:20:41.834Z,21.42
2023-08-17T22:23:09.461Z,21.10
2023-08-17T22:25:37.197Z,21.03
2023-08-17T22:28:05.315Z,21.13
2023-08-17T22:30:32.864Z,21.36
2023-08-17T22:33:00.589Z,21.09
2023-08-17T22:35:28.154Z,21.29
2023-08-17T22:37:57.025Z,21.35
2023-08-17T22:40:24.629Z,21.37
2023-08-17T22:42:52.320Z,21.36
2023-08-17T22:45:19.815Z,21.34
2023-08-17T22:47:47.326Z,21.30
2023-08-17T22:50:14.858Z,21.30
2023-08-17T22:52:42.429Z,21.34
2023-08-17T22:55:11.317Z,21.30
2023-08-17T22:57:38.804Z,21.27
2023-08-17T23:00:07.991Z,21.27
2023-08-17T23:02:35.661Z,21.24
2023-08-17T23:05:03.384Z,21.24
2023-08-17T23:07:31.209Z,21.21
2023-08-17T23:09:58.790Z,21.15
2023-08-17T23:12:27.741Z,21.16
2023-08-17T23:14:55.217Z,21.17
2023-08-17T23:17:22.713Z,21.14
2023-08-17T23:19:50.376Z,21.10
2023-08-17T23:22:19.172Z,21.13
2023-08-17T23:24:46.650Z,21.10
2023-08-17T23:27:14.104Z,21.09
2023-08-17T23:29:43.064Z,21.06
2023-08-17T23:32:25.337Z,21.10
2023-08-17T23:34:54.201Z,21.05
2023-08-17T23:37:21.817Z,21.02
2023-08-17T23:39:49.359Z,21.00
2023-08-17T23:42:16.801Z,20.98
2023-08-17T23:44:45.649Z,20.90
2023-08-17T23:47:13.812Z,20.92
2023-08-17T23:49:41.546Z,20.96
2023-08-17T23:52:09.140Z,20.89
2023-08-17T23:54:37.093Z,20.85
2023-08-17T23:57:04.629Z,20.19
2023-08-17T23:59:32.117Z,20.42
